Donnellson, Iowa
Current Conditions -  °F | °C
As of 2:35 PM on Friday 28 Nov 2014 (Local Time) from KFSW Reporting Station
Clear Clear  
Wind Chill:   Ceiling: Unl
Heat Index:   Visibility: 10mi
Dew Point:   Wind: 9mph
Humidity: 70%   Direction: 160°SSE
Pressure: 29.88"   Gusts: NA
Location:  40.64°N, 91.56°W
Report Text: KFSW 282035Z AUTO 16008KT 10SM CLR 06/01 A2988 RMK AO2
Loading
Personal Weather Stations






























Interactive Weather Map New forecast layout! Learn more

10-Day Weather Forecast

Advertisements
Track Severe Weather on mobile